Time;durP1;ratioP1;P1;durP2;ratioP2;P2;SDS_P1;SDS_P2;PMS_P1;PMS_P2;Temp;Humidity;BMP_temperature;BMP_pressure;BME280_temperature;BME280_humidity;BME280_pressure;Samples;Min_cycle;Max_cycle;Signal;HPM_P1;HPM_P2
2022/02/24 00:01:56;;;;;;;;;;;18.90;58.90;;;;;;5055956;28;1682;-68
2022/02/24 00:04:21;;;;;;;;;;;18.90;59.00;;;;;;5054372;28;1330;-68
2022/02/24 00:06:47;;;;;;;;;;;18.90;59.00;;;;;;5055639;28;1468;-68
2022/02/24 00:09:12;;;;;;;;;;;18.90;59.00;;;;;;5054980;28;1273;-68
2022/02/24 00:11:38;;;;;;;;;;;18.90;59.00;;;;;;5055651;28;1305;-68
2022/02/24 00:14:03;;;;;;;;;;;18.90;59.00;;;;;;5055865;28;1910;-68
2022/02/24 00:16:28;;;;;;;;;;;18.90;59.00;;;;;;5054149;28;1358;-68
2022/02/24 00:18:54;;;;;;;;;;;18.90;59.00;;;;;;5054226;28;1280;-68
2022/02/24 00:21:20;;;;;;;;;;;18.90;59.00;;;;;;5053829;28;1374;-68
2022/02/24 00:23:45;;;;;;;;;;;18.90;59.60;;;;;;5055390;28;1318;-68
2022/02/24 00:26:11;;;;;;;;;;;18.90;59.10;;;;;;5055163;28;1358;-68
2022/02/24 00:28:36;;;;;;;;;;;18.90;59.10;;;;;;5055199;28;1077;-68
2022/02/24 00:31:02;;;;;;;;;;;18.90;59.10;;;;;;5054991;28;1154;-69
2022/02/24 00:33:27;;;;;;;;;;;18.90;59.10;;;;;;5053835;28;1338;-68
2022/02/24 00:35:53;;;;;;;;;;;18.90;59.10;;;;;;5053648;28;1950;-67
2022/02/24 00:38:20;;;;;;;;;;;18.90;59.10;;;;;;5054285;28;1254;-68
2022/02/24 00:40:46;;;;;;;;;;;18.80;59.10;;;;;;5052371;28;1259;-67
2022/02/24 00:43:11;;;;;;;;;;;18.90;59.10;;;;;;5053176;28;1284;-69
2022/02/24 00:45:37;;;;;;;;;;;18.90;59.10;;;;;;5043024;28;1686;-68
2022/02/24 00:48:02;;;;;;;;;;;18.80;59.10;;;;;;5055077;28;1579;-68
2022/02/24 00:50:27;;;;;;;;;;;18.90;59.20;;;;;;5053803;28;1348;-68
2022/02/24 00:52:56;;;;;;;;;;;18.80;59.10;;;;;;5054538;28;1087;-68
2022/02/24 00:55:25;;;;;;;;;;;18.80;59.20;;;;;;5053285;28;1890;-68
2022/02/24 00:57:54;;;;;;;;;;;18.80;59.20;;;;;;5054827;28;1333;-68
2022/02/24 01:00:19;;;;;;;;;;;18.80;59.20;;;;;;5053083;28;1442;-69
2022/02/24 01:02:44;;;;;;;;;;;18.80;59.20;;;;;;5054765;28;1373;-68
2022/02/24 01:05:10;;;;;;;;;;;18.80;59.20;;;;;;5054213;28;1368;-69
2022/02/24 01:07:35;;;;;;;;;;;18.80;59.20;;;;;;5053227;28;1345;-68
2022/02/24 01:10:01;;;;;;;;;;;18.80;59.20;;;;;;5052903;28;1707;-68
2022/02/24 01:12:27;;;;;;;;;;;18.80;59.20;;;;;;5054688;28;1106;-68
2022/02/24 01:14:52;;;;;;;;;;;18.80;59.20;;;;;;5036819;28;1910;-68
2022/02/24 01:17:18;;;;;;;;;;;18.80;59.20;;;;;;5054279;28;1303;-69
2022/02/24 01:19:43;;;;;;;;;;;18.80;59.20;;;;;;5053359;28;1381;-68
2022/02/24 01:22:08;;;;;;;;;;;18.80;59.20;;;;;;5054389;28;1659;-68
2022/02/24 01:24:34;;;;;;;;;;;18.80;59.20;;;;;;5054692;28;1559;-68
2022/02/24 01:26:59;;;;;;;;;;;18.80;59.30;;;;;;5053711;28;1283;-68
2022/02/24 01:29:25;;;;;;;;;;;18.80;59.30;;;;;;5053258;28;1557;-68
2022/02/24 01:31:50;;;;;;;;;;;18.80;59.30;;;;;;5045796;28;1252;-68
2022/02/24 01:34:18;;;;;;;;;;;18.80;59.30;;;;;;5049234;28;2250;-68
2022/02/24 01:36:44;;;;;;;;;;;18.80;59.30;;;;;;5053121;28;1316;-68
2022/02/24 01:39:09;;;;;;;;;;;18.80;59.30;;;;;;5053005;28;1295;-68
2022/02/24 01:41:35;;;;;;;;;;;18.80;59.30;;;;;;5054287;28;1577;-69
2022/02/24 01:44:07;;;;;;;;;;;18.80;59.40;;;;;;5050667;28;1331;-68
2022/02/24 01:46:32;;;;;;;;;;;18.80;59.30;;;;;;5048845;28;1317;-68
2022/02/24 01:48:58;;;;;;;;;;;18.80;59.40;;;;;;5051726;28;1398;-68
2022/02/24 01:51:23;;;;;;;;;;;18.80;59.30;;;;;;5053833;28;1275;-67
2022/02/24 01:53:48;;;;;;;;;;;18.80;59.40;;;;;;5052389;28;1953;-68
2022/02/24 01:56:14;;;;;;;;;;;18.80;59.40;;;;;;5052315;28;1634;-68
2022/02/24 01:58:39;;;;;;;;;;;18.80;59.40;;;;;;5052087;28;1216;-69
2022/02/24 02:01:05;;;;;;;;;;;18.70;59.30;;;;;;5053369;28;1387;-68
2022/02/24 02:03:30;;;;;;;;;;;18.80;59.40;;;;;;5053072;28;1647;-68
2022/02/24 02:05:56;;;;;;;;;;;18.70;59.30;;;;;;5052029;28;1970;-68
2022/02/24 02:08:22;;;;;;;;;;;18.70;59.30;;;;;;5051524;28;1330;-69
2022/02/24 02:10:47;;;;;;;;;;;18.70;59.40;;;;;;5049538;28;2334;-68
2022/02/24 02:13:12;;;;;;;;;;;18.70;59.40;;;;;;5052584;28;1658;-68
2022/02/24 02:15:38;;;;;;;;;;;18.70;59.40;;;;;;5053505;28;1902;-68
2022/02/24 02:18:03;;;;;;;;;;;18.70;59.40;;;;;;5053622;28;1377;-68
2022/02/24 02:20:29;;;;;;;;;;;18.70;59.40;;;;;;5051342;28;1724;-69
2022/02/24 02:22:54;;;;;;;;;;;18.70;59.40;;;;;;5053220;28;1248;-68
2022/02/24 02:25:20;;;;;;;;;;;18.70;59.40;;;;;;5052981;28;1219;-68
2022/02/24 02:27:46;;;;;;;;;;;18.70;59.40;;;;;;5033959;28;1261;-68
2022/02/24 02:30:11;;;;;;;;;;;18.70;59.40;;;;;;5064193;28;1107;-69
2022/02/24 02:32:37;;;;;;;;;;;18.70;59.90;;;;;;5051804;28;1342;-69
2022/02/24 02:35:02;;;;;;;;;;;18.70;59.40;;;;;;5051570;28;1944;-68
2022/02/24 02:37:28;;;;;;;;;;;18.70;59.30;;;;;;5053184;28;1361;-68
2022/02/24 02:39:53;;;;;;;;;;;18.70;59.30;;;;;;5052784;28;1252;-69
2022/02/24 02:42:18;;;;;;;;;;;18.70;59.30;;;;;;5053053;28;1317;-69
2022/02/24 02:44:44;;;;;;;;;;;18.80;59.40;;;;;;5052864;28;1340;-68
2022/02/24 02:47:09;;;;;;;;;;;18.70;59.30;;;;;;5052770;28;1242;-68
2022/02/24 02:49:35;;;;;;;;;;;18.70;59.30;;;;;;5052237;28;1262;-68
2022/02/24 02:52:00;;;;;;;;;;;18.70;59.30;;;;;;5051726;28;1267;-68
2022/02/24 02:54:26;;;;;;;;;;;18.70;59.30;;;;;;5052604;28;1902;-68
2022/02/24 02:56:52;;;;;;;;;;;18.80;59.30;;;;;;5051538;28;1263;-68
2022/02/24 02:59:19;;;;;;;;;;;18.70;59.30;;;;;;5052444;28;1230;-68
2022/02/24 03:01:51;;;;;;;;;;;18.70;59.30;;;;;;5053129;28;1234;-68
2022/02/24 03:04:16;;;;;;;;;;;18.70;59.30;;;;;;5052653;28;1264;-68
2022/02/24 03:06:41;;;;;;;;;;;18.70;59.30;;;;;;5052941;28;1363;-67
2022/02/24 03:09:07;;;;;;;;;;;18.70;59.30;;;;;;5052717;28;1232;-68
2022/02/24 03:11:34;;;;;;;;;;;18.70;59.30;;;;;;5052753;28;1317;-68
2022/02/24 03:14:00;;;;;;;;;;;18.70;59.30;;;;;;5052815;28;1902;-67
2022/02/24 03:16:25;;;;;;;;;;;18.70;59.40;;;;;;5052646;28;1212;-68
2022/02/24 03:18:50;;;;;;;;;;;18.70;59.30;;;;;;5051562;28;1235;-67
2022/02/24 03:21:16;;;;;;;;;;;18.70;59.40;;;;;;5052361;28;1310;-67
2022/02/24 03:23:41;;;;;;;;;;;18.70;59.40;;;;;;5051167;28;1262;-68
2022/02/24 03:28:38;;;;;;;;;;;18.70;59.40;;;;;;5041911;28;2267;-68
2022/02/24 03:31:03;;;;;;;;;;;18.70;59.40;;;;;;5042145;28;1287;-69
2022/02/24 03:33:29;;;;;;;;;;;18.70;59.40;;;;;;5038978;28;1400;-70
2022/02/24 03:35:54;;;;;;;;;;;18.70;59.40;;;;;;5041792;28;1902;-71
2022/02/24 03:38:20;;;;;;;;;;;18.70;59.40;;;;;;5041141;28;1414;-69
2022/02/24 03:40:45;;;;;;;;;;;18.70;59.40;;;;;;5040412;28;1173;-69
2022/02/24 03:43:10;;;;;;;;;;;18.70;59.40;;;;;;5041670;28;1428;-70
2022/02/24 03:45:36;;;;;;;;;;;18.70;59.40;;;;;;5043372;28;1646;-69
2022/02/24 03:48:01;;;;;;;;;;;18.70;59.40;;;;;;5049609;28;1383;-68
2022/02/24 03:50:27;;;;;;;;;;;18.70;59.40;;;;;;5051439;28;1377;-68
2022/02/24 03:52:52;;;;;;;;;;;18.70;59.40;;;;;;5052774;28;1637;-68
2022/02/24 03:55:18;;;;;;;;;;;18.70;59.50;;;;;;5052505;28;1882;-68
2022/02/24 03:57:43;;;;;;;;;;;18.70;59.50;;;;;;5052775;28;1650;-68
2022/02/24 04:00:09;;;;;;;;;;;18.70;59.50;;;;;;5051001;28;1392;-68
2022/02/24 04:02:34;;;;;;;;;;;18.70;59.50;;;;;;5051419;28;1627;-68
2022/02/24 04:05:00;;;;;;;;;;;18.60;59.40;;;;;;5052446;28;1480;-68
2022/02/24 04:07:26;;;;;;;;;;;18.60;59.40;;;;;;5051304;28;1698;-68
2022/02/24 04:09:51;;;;;;;;;;;18.70;59.50;;;;;;5051030;28;1424;-68
2022/02/24 04:12:17;;;;;;;;;;;18.60;59.50;;;;;;5052476;28;1261;-68
2022/02/24 04:14:42;;;;;;;;;;;18.60;59.50;;;;;;5052083;28;1906;-68
2022/02/24 04:17:09;;;;;;;;;;;18.60;59.50;;;;;;5052334;28;1378;-68
2022/02/24 04:19:34;;;;;;;;;;;18.60;59.50;;;;;;5052084;28;1253;-68
2022/02/24 04:22:00;;;;;;;;;;;18.60;59.50;;;;;;5052438;28;1680;-69
2022/02/24 04:24:25;;;;;;;;;;;18.60;59.50;;;;;;5052178;28;1386;-68
2022/02/24 04:26:51;;;;;;;;;;;18.60;59.50;;;;;;5052267;28;1807;-68
2022/02/24 04:29:16;;;;;;;;;;;18.70;59.60;;;;;;5051963;28;1437;-68
2022/02/24 04:31:41;;;;;;;;;;;18.70;59.60;;;;;;5055225;28;1635;-68
2022/02/24 04:34:07;;;;;;;;;;;18.60;59.50;;;;;;5055691;28;1955;-68
2022/02/24 04:36:32;;;;;;;;;;;18.60;59.50;;;;;;5055901;28;1336;-68
2022/02/24 04:38:58;;;;;;;;;;;18.60;59.50;;;;;;5037575;28;1352;-68
2022/02/24 04:41:23;;;;;;;;;;;18.60;59.50;;;;;;5055950;28;1380;-69
2022/02/24 04:43:49;;;;;;;;;;;18.60;59.50;;;;;;5055560;28;1347;-69
2022/02/24 04:46:14;;;;;;;;;;;18.60;59.60;;;;;;5055608;28;1660;-69
2022/02/24 04:48:40;;;;;;;;;;;18.60;59.60;;;;;;5055484;28;1404;-69
2022/02/24 04:51:06;;;;;;;;;;;18.60;59.60;;;;;;5054389;28;1707;-69
2022/02/24 04:53:32;;;;;;;;;;;18.60;59.60;;;;;;5055545;28;1388;-69
2022/02/24 04:55:57;;;;;;;;;;;18.60;59.60;;;;;;5055502;28;1906;-69
2022/02/24 04:58:23;;;;;;;;;;;18.60;59.60;;;;;;5055479;28;1417;-69
2022/02/24 05:00:48;;;;;;;;;;;18.60;59.60;;;;;;5055129;28;1194;-68
2022/02/24 05:03:14;;;;;;;;;;;18.60;59.60;;;;;;5055431;28;1715;-68
2022/02/24 05:05:39;;;;;;;;;;;18.60;59.60;;;;;;5054023;28;1369;-67
2022/02/24 05:08:05;;;;;;;;;;;18.60;59.60;;;;;;5048866;28;2869;-68
2022/02/24 05:10:30;;;;;;;;;;;18.60;59.60;;;;;;5047475;28;1930;-68
2022/02/24 05:12:56;;;;;;;;;;;18.60;59.90;;;;;;5053524;28;1666;-68
2022/02/24 05:15:21;;;;;;;;;;;18.60;59.50;;;;;;5054428;28;1902;-68
2022/02/24 05:17:47;;;;;;;;;;;18.60;59.40;;;;;;5054934;28;1268;-68
2022/02/24 05:20:13;;;;;;;;;;;18.70;59.40;;;;;;5053667;28;1339;-69
2022/02/24 05:22:41;;;;;;;;;;;18.70;59.30;;;;;;5037349;28;1376;-68
2022/02/24 05:25:07;;;;;;;;;;;18.70;59.30;;;;;;5053769;28;898;-68
2022/02/24 05:27:32;;;;;;;;;;;18.80;59.20;;;;;;5053741;28;1196;-68
2022/02/24 05:29:58;;;;;;;;;;;18.80;59.10;;;;;;5062641;28;1527;-68
2022/02/24 05:32:23;;;;;;;;;;;18.80;59.10;;;;;;5073765;28;839;-67
2022/02/24 05:34:49;;;;;;;;;;;18.80;58.90;;;;;;5066029;28;1959;-67
2022/02/24 05:37:14;;;;;;;;;;;18.90;58.90;;;;;;5053565;28;1232;-67
2022/02/24 05:39:41;;;;;;;;;;;18.90;58.80;;;;;;5054416;28;779;-67
2022/02/24 05:42:06;;;;;;;;;;;18.90;58.80;;;;;;5052297;28;875;-70
2022/02/24 05:44:32;;;;;;;;;;;18.90;58.70;;;;;;5054648;28;795;-70
2022/02/24 05:46:57;;;;;;;;;;;18.90;58.70;;;;;;5054502;28;1285;-69
2022/02/24 05:49:22;;;;;;;;;;;18.90;58.60;;;;;;5054272;28;770;-69
2022/02/24 05:51:48;;;;;;;;;;;18.90;58.60;;;;;;5054479;28;785;-68
2022/02/24 05:54:13;;;;;;;;;;;18.90;58.50;;;;;;5054484;28;1943;-68
2022/02/24 05:56:39;;;;;;;;;;;19.00;58.60;;;;;;5054248;28;1249;-71
2022/02/24 05:59:04;;;;;;;;;;;19.00;58.50;;;;;;5052818;28;844;-68
2022/02/24 06:01:30;;;;;;;;;;;19.00;58.50;;;;;;5054371;28;879;-67
2022/02/24 06:03:55;;;;;;;;;;;19.00;58.50;;;;;;5054478;28;819;-67
2022/02/24 06:06:21;;;;;;;;;;;19.00;58.40;;;;;;5053448;28;1391;-64
2022/02/24 06:08:46;;;;;;;;;;;19.00;58.70;;;;;;5049238;28;1382;-66
2022/02/24 06:11:11;;;;;;;;;;;19.00;58.40;;;;;;5052707;28;895;-68
2022/02/24 06:13:37;;;;;;;;;;;19.00;58.40;;;;;;5052807;28;915;-66
2022/02/24 06:16:02;;;;;;;;;;;19.00;58.40;;;;;;5052511;28;1945;-70
2022/02/24 06:18:28;;;;;;;;;;;19.10;58.40;;;;;;5052827;28;863;-70
2022/02/24 06:20:53;;;;;;;;;;;19.10;58.40;;;;;;5054111;28;844;-71
2022/02/24 06:23:19;;;;;;;;;;;19.00;58.40;;;;;;5052669;28;978;-71
2022/02/24 06:25:44;;;;;;;;;;;19.00;58.40;;;;;;5053890;28;954;-69
2022/02/24 06:28:10;;;;;;;;;;;19.00;58.40;;;;;;5053568;28;1180;-68
2022/02/24 06:30:35;;;;;;;;;;;19.00;58.30;;;;;;5062326;28;1684;-67
2022/02/24 06:33:01;;;;;;;;;;;19.00;58.30;;;;;;5073739;28;896;-67
2022/02/24 06:35:27;;;;;;;;;;;19.10;58.40;;;;;;5060024;28;1947;-68
2022/02/24 06:37:52;;;;;;;;;;;19.00;58.30;;;;;;5053741;28;1211;-68
2022/02/24 06:40:17;;;;;;;;;;;19.10;58.40;;;;;;5053356;28;804;-67
2022/02/24 06:42:43;;;;;;;;;;;19.10;58.30;;;;;;5054286;28;1493;-67
2022/02/24 06:45:08;;;;;;;;;;;19.10;58.30;;;;;;5054730;28;2113;-67
2022/02/24 06:47:35;;;;;;;;;;;19.10;58.40;;;;;;5065079;28;1531;-69
2022/02/24 06:50:00;;;;;;;;;;;19.00;58.30;;;;;;5073240;28;854;-67
2022/02/24 06:52:26;;;;;;;;;;;19.10;58.30;;;;;;5073423;28;902;-66
2022/02/24 06:54:52;;;;;;;;;;;19.00;58.30;;;;;;5073008;28;1894;-67
2022/02/24 06:57:17;;;;;;;;;;;19.00;58.30;;;;;;5073491;28;1204;-68
2022/02/24 06:59:44;;;;;;;;;;;19.00;58.30;;;;;;5072877;28;857;-68
2022/02/24 07:02:09;;;;;;;;;;;19.00;58.30;;;;;;5073299;28;854;-69
2022/02/24 07:04:35;;;;;;;;;;;19.10;58.30;;;;;;5072653;28;709;-69
2022/02/24 07:07:00;;;;;;;;;;;19.10;58.30;;;;;;5073274;28;1192;-69
2022/02/24 07:09:26;;;;;;;;;;;19.10;58.30;;;;;;5071759;28;1208;-69
2022/02/24 07:11:51;;;;;;;;;;;19.00;58.30;;;;;;5071972;28;820;-70
2022/02/24 07:14:17;;;;;;;;;;;19.10;58.30;;;;;;5073147;28;1882;-70
2022/02/24 07:16:42;;;;;;;;;;;19.10;58.30;;;;;;5072277;28;1235;-70
2022/02/24 07:19:08;;;;;;;;;;;19.10;58.30;;;;;;5055183;28;1558;-70
2022/02/24 07:21:33;;;;;;;;;;;19.10;58.30;;;;;;5071824;28;839;-71
2022/02/24 07:23:59;;;;;;;;;;;19.10;58.30;;;;;;5071960;28;1306;-67
2022/02/24 07:26:24;;;;;;;;;;;19.10;58.30;;;;;;5073499;28;1285;-69
2022/02/24 07:28:50;;;;;;;;;;;19.10;58.30;;;;;;5068037;28;1172;-69
2022/02/24 07:31:15;;;;;;;;;;;19.10;58.30;;;;;;5072645;28;886;-69
2022/02/24 07:33:41;;;;;;;;;;;19.10;58.30;;;;;;5072891;28;1099;-69
2022/02/24 07:36:06;;;;;;;;;;;19.10;58.30;;;;;;5053217;28;1913;-69
2022/02/24 07:38:32;;;;;;;;;;;19.10;58.30;;;;;;5052574;28;692;-69
2022/02/24 07:40:57;;;;;;;;;;;19.10;58.30;;;;;;5052587;28;862;-69
2022/02/24 07:43:23;;;;;;;;;;;19.10;58.30;;;;;;5052709;28;815;-69
2022/02/24 07:45:48;;;;;;;;;;;19.00;58.20;;;;;;5052680;28;823;-69
2022/02/24 07:48:13;;;;;;;;;;;19.10;58.30;;;;;;5052661;28;1166;-69
2022/02/24 07:50:39;;;;;;;;;;;19.00;58.20;;;;;;5051054;28;957;-69
2022/02/24 07:53:04;;;;;;;;;;;19.10;58.30;;;;;;5052592;28;915;-69
2022/02/24 07:55:30;;;;;;;;;;;19.10;58.30;;;;;;5052727;28;1957;-69
2022/02/24 07:57:55;;;;;;;;;;;19.10;58.20;;;;;;5051213;28;1181;-70
2022/02/24 08:00:21;;;;;;;;;;;19.10;58.30;;;;;;5051197;28;807;-69
2022/02/24 08:02:46;;;;;;;;;;;19.10;58.80;;;;;;5052358;28;840;-69
2022/02/24 08:05:12;;;;;;;;;;;19.10;58.30;;;;;;5051739;28;1441;-69
2022/02/24 08:07:37;;;;;;;;;;;19.10;58.20;;;;;;5054849;28;1283;-69
2022/02/24 08:10:03;;;;;;;;;;;19.10;58.20;;;;;;5055760;28;783;-69
2022/02/24 08:12:44;;;;;;;;;;;19.10;58.20;;;;;;5055755;28;1287;-69
2022/02/24 08:15:19;;;;;;;;;;;19.10;58.20;;;;;;5054997;28;1890;-69
2022/02/24 08:17:45;;;;;;;;;;;19.10;58.20;;;;;;5055764;28;1221;-69
2022/02/24 08:20:11;;;;;;;;;;;19.20;58.10;;;;;;5055509;28;1001;-68
2022/02/24 08:22:47;;;;;;;;;;;19.30;58.00;;;;;;5045593;28;1736;-67
2022/02/24 08:25:13;;;;;;;;;;;19.40;57.90;;;;;;5047582;28;1772;-67
2022/02/24 08:27:39;;;;;;;;;;;19.50;57.70;;;;;;5037406;28;1417;-67
2022/02/24 08:30:05;;;;;;;;;;;19.70;57.50;;;;;;5062489;28;1237;-67
2022/02/24 08:32:31;;;;;;;;;;;19.80;57.30;;;;;;5054265;28;910;-67
2022/02/24 08:34:58;;;;;;;;;;;19.90;57.00;;;;;;5044564;28;1918;-68
2022/02/24 08:37:23;;;;;;;;;;;20.00;56.70;;;;;;5052676;28;1221;-69
2022/02/24 08:39:49;;;;;;;;;;;20.10;56.40;;;;;;5073651;28;994;-70
2022/02/24 08:42:14;;;;;;;;;;;20.20;56.30;;;;;;5052243;28;1246;-69
2022/02/24 08:44:43;;;;;;;;;;;20.20;56.10;;;;;;5035314;28;674;-69
2022/02/24 08:47:11;;;;;;;;;;;20.30;55.90;;;;;;5035345;28;1212;-68
2022/02/24 08:49:37;;;;;;;;;;;20.40;55.80;;;;;;5033973;28;800;-68
2022/02/24 08:52:02;;;;;;;;;;;20.40;55.60;;;;;;5035035;28;856;-68
2022/02/24 08:54:29;;;;;;;;;;;20.50;55.50;;;;;;5033694;28;1957;-68
2022/02/24 08:56:54;;;;;;;;;;;20.60;55.40;;;;;;5035136;28;1207;-68
2022/02/24 08:59:20;;;;;;;;;;;20.60;55.20;;;;;;5034830;28;1113;-68
2022/02/24 09:01:45;;;;;;;;;;;20.70;55.10;;;;;;5055529;28;2246;-68
2022/02/24 09:04:12;;;;;;;;;;;20.70;55.10;;;;;;5063031;28;1282;-68
2022/02/24 09:06:38;;;;;;;;;;;20.70;54.90;;;;;;5073420;28;1339;-68
2022/02/24 09:09:04;;;;;;;;;;;20.80;54.90;;;;;;5074691;28;1075;-67
2022/02/24 09:11:30;;;;;;;;;;;20.80;54.90;;;;;;5074715;28;882;-67
2022/02/24 09:13:55;;;;;;;;;;;20.80;54.90;;;;;;5074382;28;1971;-67
2022/02/24 09:16:21;;;;;;;;;;;20.80;54.90;;;;;;5074679;28;1232;-68
2022/02/24 09:18:47;;;;;;;;;;;20.80;54.90;;;;;;5071371;28;1258;-67
2022/02/24 09:21:12;;;;;;;;;;;20.80;54.90;;;;;;5053030;28;795;-67
2022/02/24 09:23:38;;;;;;;;;;;20.80;54.90;;;;;;5034293;28;2118;-68
2022/02/24 09:26:03;;;;;;;;;;;20.80;55.00;;;;;;5054454;28;2685;-66
2022/02/24 09:28:29;;;;;;;;;;;20.80;55.00;;;;;;5058982;23;2062;-65
2022/02/24 09:30:54;;;;;;;;;;;20.90;55.00;;;;;;5053812;28;1129;-66
2022/02/24 09:33:20;;;;;;;;;;;20.80;55.00;;;;;;5054305;28;807;-65
2022/02/24 09:35:45;;;;;;;;;;;20.80;54.90;;;;;;5036046;28;1922;-68
2022/02/24 09:38:11;;;;;;;;;;;20.80;55.00;;;;;;5053889;28;1293;-69
2022/02/24 09:40:36;;;;;;;;;;;20.80;55.00;;;;;;5054160;28;952;-69
2022/02/24 09:43:02;;;;;;;;;;;20.80;55.00;;;;;;5054409;28;1021;-69
2022/02/24 09:45:27;;;;;;;;;;;20.70;55.00;;;;;;5054664;28;827;-69
2022/02/24 09:47:53;;;;;;;;;;;20.70;55.30;;;;;;5048343;28;1306;-69
2022/02/24 09:50:18;;;;;;;;;;;20.70;55.10;;;;;;5034779;28;898;-69
2022/02/24 09:52:44;;;;;;;;;;;20.70;55.10;;;;;;5053994;28;894;-69
2022/02/24 09:55:10;;;;;;;;;;;20.70;55.10;;;;;;5054032;28;1902;-69
2022/02/24 09:57:36;;;;;;;;;;;20.70;55.20;;;;;;5053957;28;1210;-69
2022/02/24 10:00:02;;;;;;;;;;;20.60;55.20;;;;;;5053819;28;783;-69
2022/02/24 10:02:28;;;;;;;;;;;20.60;55.30;;;;;;5035860;28;1551;-69
2022/02/24 10:05:07;;;;;;;;;;;20.60;55.40;;;;;;5054427;28;775;-69
2022/02/24 10:07:35;;;;;;;;;;;20.60;56.00;;;;;;5035866;28;1197;-69
2022/02/24 10:10:19;;;;;;;;;;;20.60;55.60;;;;;;5047766;28;2245;-69
2022/02/24 10:12:57;;;;;;;;;;;20.50;55.50;;;;;;5031919;28;944;-69
2022/02/24 10:15:23;;;;;;;;;;;20.50;55.60;;;;;;5033337;28;1906;-69
2022/02/24 10:18:03;;;;;;;;;;;20.50;55.60;;;;;;5032592;28;1283;-69
2022/02/24 10:20:35;;;;;;;;;;;20.50;55.70;;;;;;5015514;28;1203;-69
2022/02/24 10:23:01;;;;;;;;;;;20.50;55.80;;;;;;5033606;28;815;-69
2022/02/24 10:25:26;;;;;;;;;;;20.40;55.80;;;;;;5033552;28;883;-69
2022/02/24 10:27:52;;;;;;;;;;;20.40;55.90;;;;;;5032458;28;1207;-69
2022/02/24 10:30:19;;;;;;;;;;;20.40;55.90;;;;;;5032932;28;1266;-69
2022/02/24 10:32:52;;;;;;;;;;;20.40;56.00;;;;;;5033277;28;909;-68
2022/02/24 10:35:17;;;;;;;;;;;20.40;56.00;;;;;;5015631;28;1965;-69
2022/02/24 10:37:43;;;;;;;;;;;20.40;56.00;;;;;;5033152;28;1216;-69
2022/02/24 10:40:08;;;;;;;;;;;20.30;56.00;;;;;;5031283;28;2194;-70
2022/02/24 10:42:34;;;;;;;;;;;20.30;56.10;;;;;;5027084;28;1521;-69
2022/02/24 10:45:06;;;;;;;;;;;20.30;56.10;;;;;;5018869;28;1054;-69
2022/02/24 10:47:31;;;;;;;;;;;20.30;56.20;;;;;;5033007;28;1266;-69
2022/02/24 10:49:56;;;;;;;;;;;20.30;56.20;;;;;;5015134;28;1100;-68
2022/02/24 10:52:22;;;;;;;;;;;20.20;56.20;;;;;;5031062;28;1826;-68
2022/02/24 10:54:56;;;;;;;;;;;20.20;56.20;;;;;;5026267;28;1906;-69
2022/02/24 10:57:24;;;;;;;;;;;20.20;56.30;;;;;;5025399;28;1967;-69
2022/02/24 10:59:50;;;;;;;;;;;20.20;56.30;;;;;;5023524;28;1080;-69
2022/02/24 11:02:15;;;;;;;;;;;20.20;56.40;;;;;;5015216;28;903;-69
2022/02/24 11:04:42;;;;;;;;;;;20.20;56.40;;;;;;5033297;28;801;-69
2022/02/24 11:07:07;;;;;;;;;;;20.20;56.40;;;;;;5032833;28;1294;-69
2022/02/24 11:09:34;;;;;;;;;;;20.20;56.50;;;;;;5014914;28;907;-69
2022/02/24 11:12:00;;;;;;;;;;;20.20;56.50;;;;;;5015265;28;848;-68
2022/02/24 11:14:25;;;;;;;;;;;20.10;56.50;;;;;;5032766;28;1961;-69
2022/02/24 11:16:51;;;;;;;;;;;20.10;56.50;;;;;;5015048;28;1205;-69
2022/02/24 11:19:16;;;;;;;;;;;20.10;56.60;;;;;;5014961;28;958;-69
2022/02/24 11:21:42;;;;;;;;;;;20.10;56.60;;;;;;5014986;28;902;-69
2022/02/24 11:24:08;;;;;;;;;;;20.10;56.70;;;;;;5029915;28;1841;-70
2022/02/24 11:26:39;;;;;;;;;;;20.10;56.70;;;;;;5032310;28;1303;-69
2022/02/24 11:29:09;;;;;;;;;;;20.10;56.70;;;;;;5036807;28;1257;-69
2022/02/24 11:31:42;;;;;;;;;;;20.10;56.70;;;;;;5014885;28;1151;-69
2022/02/24 11:34:08;;;;;;;;;;;20.00;57.30;;;;;;5032296;28;1902;-70
2022/02/24 11:36:40;;;;;;;;;;;20.00;56.70;;;;;;5032078;28;1205;-70
2022/02/24 11:39:15;;;;;;;;;;;20.10;56.80;;;;;;5032902;28;1166;-70
2022/02/24 11:41:50;;;;;;;;;;;20.10;56.70;;;;;;5036547;28;977;-69
2022/02/24 11:44:34;;;;;;;;;;;20.10;56.70;;;;;;5036672;28;913;-70
2022/02/24 11:47:00;;;;;;;;;;;20.10;56.70;;;;;;5036249;28;1209;-69
2022/02/24 11:49:44;;;;;;;;;;;20.10;56.60;;;;;;5018551;28;808;-70
2022/02/24 11:52:28;;;;;;;;;;;20.10;56.60;;;;;;5036459;28;1050;-68
2022/02/24 11:54:54;;;;;;;;;;;20.20;56.60;;;;;;5036376;28;1899;-69
2022/02/24 11:57:28;;;;;;;;;;;20.20;56.50;;;;;;5018473;28;1214;-69
2022/02/24 11:59:54;;;;;;;;;;;20.20;56.50;;;;;;5036095;28;985;-68
2022/02/24 12:02:20;;;;;;;;;;;20.20;56.50;;;;;;5036154;28;941;-68
2022/02/24 12:04:45;;;;;;;;;;;20.20;56.50;;;;;;5036566;28;833;-68
2022/02/24 12:07:12;;;;;;;;;;;20.20;56.50;;;;;;5018413;28;1203;-68
2022/02/24 12:09:38;;;;;;;;;;;20.20;56.50;;;;;;5035970;28;851;-67
2022/02/24 12:12:03;;;;;;;;;;;20.20;56.50;;;;;;5035737;28;819;-68
2022/02/24 12:14:31;;;;;;;;;;;20.20;56.50;;;;;;5036135;28;1905;-66
2022/02/24 12:17:03;;;;;;;;;;;20.20;56.50;;;;;;5035842;28;1264;-67
2022/02/24 12:19:34;;;;;;;;;;;20.20;56.50;;;;;;5035820;28;1276;-68
2022/02/24 12:22:15;;;;;;;;;;;20.20;56.50;;;;;;5035822;28;1036;-67
2022/02/24 12:24:44;;;;;;;;;;;20.20;56.50;;;;;;5035764;28;847;-67
2022/02/24 12:27:29;;;;;;;;;;;20.20;56.60;;;;;;5018297;28;1338;-67
2022/02/24 12:29:55;;;;;;;;;;;20.10;56.50;;;;;;5035456;28;1206;-68
2022/02/24 12:32:20;;;;;;;;;;;20.10;56.50;;;;;;5017963;28;780;-67
2022/02/24 12:34:46;;;;;;;;;;;20.10;56.60;;;;;;5017895;28;1911;-68
2022/02/24 12:37:14;;;;;;;;;;;20.10;56.60;;;;;;5034290;28;1212;-68
2022/02/24 12:39:40;;;;;;;;;;;20.10;56.70;;;;;;5017548;28;1335;-68
2022/02/24 12:42:06;;;;;;;;;;;20.10;56.70;;;;;;5035299;28;1025;-68
2022/02/24 12:44:32;;;;;;;;;;;20.10;56.70;;;;;;5034330;28;1021;-68
2022/02/24 12:46:57;;;;;;;;;;;20.00;56.70;;;;;;5035134;28;1216;-69
2022/02/24 12:49:23;;;;;;;;;;;20.00;56.80;;;;;;5030127;28;2162;-69
2022/02/24 12:51:48;;;;;;;;;;;20.00;56.80;;;;;;5015827;28;1281;-68
2022/02/24 12:54:15;;;;;;;;;;;20.00;56.80;;;;;;5016274;28;1955;-68
2022/02/24 12:56:40;;;;;;;;;;;20.00;56.80;;;;;;5034859;28;1223;-68
2022/02/24 12:59:09;;;;;;;;;;;20.00;56.80;;;;;;5017310;28;1126;-68
2022/02/24 13:01:35;;;;;;;;;;;20.00;56.80;;;;;;5017439;28;841;-68
2022/02/24 13:04:00;;;;;;;;;;;20.00;56.80;;;;;;5035116;28;860;-69
2022/02/24 13:06:31;;;;;;;;;;;20.00;56.80;;;;;;5035241;28;786;-69
2022/02/24 13:11:40;;;;;;;;;;;20.00;56.80;;;;;;5035061;28;649;-68
2022/02/24 13:14:06;;;;;;;;;;;20.10;56.80;;;;;;5034969;28;1906;-68
2022/02/24 13:16:31;;;;;;;;;;;20.10;56.80;;;;;;5034701;28;899;-68
2022/02/24 13:18:58;;;;;;;;;;;20.10;56.70;;;;;;5034550;28;1327;-68
2022/02/24 13:21:24;;;;;;;;;;;20.10;56.80;;;;;;5034893;28;909;-68
2022/02/24 13:23:54;;;;;;;;;;;20.10;56.70;;;;;;5034949;28;927;-68
2022/02/24 13:26:28;;;;;;;;;;;20.10;56.70;;;;;;5016860;28;803;-67
2022/02/24 13:28:53;;;;;;;;;;;20.10;56.70;;;;;;5016641;28;1312;-67
2022/02/24 13:31:19;;;;;;;;;;;20.10;56.70;;;;;;5034445;28;891;-68
2022/02/24 13:33:45;;;;;;;;;;;20.10;56.70;;;;;;5017001;28;895;-67
2022/02/24 13:36:10;;;;;;;;;;;20.10;56.70;;;;;;5016786;28;1906;-67
2022/02/24 13:38:38;;;;;;;;;;;20.10;56.70;;;;;;5034259;28;1228;-69
2022/02/24 13:41:04;;;;;;;;;;;20.10;56.80;;;;;;5034436;28;897;-69
2022/02/24 13:43:29;;;;;;;;;;;20.00;56.70;;;;;;5034464;28;807;-69
2022/02/24 13:45:55;;;;;;;;;;;20.10;56.80;;;;;;5033067;28;811;-69
2022/02/24 13:48:24;;;;;;;;;;;20.00;56.70;;;;;;5033004;28;1181;-69
2022/02/24 13:50:50;;;;;;;;;;;20.00;56.80;;;;;;5034085;28;827;-69
2022/02/24 13:53:15;;;;;;;;;;;20.00;56.80;;;;;;5033102;28;855;-69
2022/02/24 13:56:00;;;;;;;;;;;20.00;56.80;;;;;;5034202;28;1899;-69
2022/02/24 13:58:25;;;;;;;;;;;20.00;56.80;;;;;;5034273;28;1183;-69
2022/02/24 14:00:55;;;;;;;;;;;20.00;56.90;;;;;;5033904;28;930;-69
2022/02/24 14:03:27;;;;;;;;;;;20.00;56.90;;;;;;5032966;28;828;-69
2022/02/24 14:06:00;;;;;;;;;;;20.00;56.90;;;;;;5033020;28;913;-69
2022/02/24 14:08:26;;;;;;;;;;;19.90;56.90;;;;;;5033933;28;1232;-68
2022/02/24 14:11:02;;;;;;;;;;;19.90;56.90;;;;;;5032650;28;879;-69
2022/02/24 14:13:27;;;;;;;;;;;20.00;57.00;;;;;;5033951;28;1068;-68
2022/02/24 14:15:53;;;;;;;;;;;19.90;57.00;;;;;;5033821;28;1960;-68
2022/02/24 14:18:18;;;;;;;;;;;19.90;57.00;;;;;;5033893;28;1292;-69
2022/02/24 14:20:43;;;;;;;;;;;19.90;57.00;;;;;;5032298;28;899;-68
2022/02/24 14:23:09;;;;;;;;;;;19.90;57.00;;;;;;5032482;28;2149;-68
2022/02/24 14:25:35;;;;;;;;;;;19.90;57.10;;;;;;5026897;28;1286;-69
2022/02/24 14:28:00;;;;;;;;;;;19.90;57.10;;;;;;5033232;28;1376;-69
2022/02/24 14:30:26;;;;;;;;;;;19.90;57.10;;;;;;5033114;28;1190;-68
2022/02/24 14:32:52;;;;;;;;;;;19.90;57.10;;;;;;5033507;28;1018;-68
2022/02/24 14:35:17;;;;;;;;;;;19.90;57.10;;;;;;5033357;28;1919;-69